sensor_id;sensor_type;location;lat;lon;timestamp;pressure;altitude;pressure_sealevel;temperature;humidity
62708;BME280;48769;51.624;5.886;2023-03-07T00:00:42;99736.88;;;4.92;100.00
62708;BME280;48769;51.624;5.886;2023-03-07T00:03:10;99731.50;;;4.96;100.00
62708;BME280;48769;51.624;5.886;2023-03-07T00:05:36;99737.44;;;4.99;100.00
62708;BME280;48769;51.624;5.886;2023-03-07T00:08:01;99736.59;;;4.99;100.00
62708;BME280;48769;51.624;5.886;2023-03-07T00:10:26;99732.16;;;5.01;100.00
62708;BME280;48769;51.624;5.886;2023-03-07T00:12:52;99723.53;;;4.99;100.00
62708;BME280;48769;51.624;5.886;2023-03-07T00:15:17;99724.31;;;5.01;100.00
62708;BME280;48769;51.624;5.886;2023-03-07T00:17:43;99724.22;;;5.02;100.00
62708;BME280;48769;51.624;5.886;2023-03-07T00:20:09;99726.00;;;5.02;100.00
62708;BME280;48769;51.624;5.886;2023-03-07T00:22:41;99724.44;;;4.98;100.00
62708;BME280;48769;51.624;5.886;2023-03-07T00:25:08;99722.81;;;4.95;100.00
62708;BME280;48769;51.624;5.886;2023-03-07T00:27:34;99713.41;;;4.91;100.00
62708;BME280;48769;51.624;5.886;2023-03-07T00:30:00;99710.25;;;4.84;100.00
62708;BME280;48769;51.624;5.886;2023-03-07T00:32:26;99709.59;;;4.79;100.00
62708;BME280;48769;51.624;5.886;2023-03-07T00:34:52;99705.56;;;4.72;100.00
62708;BME280;48769;51.624;5.886;2023-03-07T00:37:18;99719.75;;;4.66;100.00
62708;BME280;48769;51.624;5.886;2023-03-07T00:39:43;99713.81;;;4.63;100.00
62708;BME280;48769;51.624;5.886;2023-03-07T00:42:08;99706.75;;;4.65;100.00
62708;BME280;48769;51.624;5.886;2023-03-07T00:44:34;99713.81;;;4.63;100.00
62708;BME280;48769;51.624;5.886;2023-03-07T00:47:00;99712.13;;;4.62;100.00
62708;BME280;48769;51.624;5.886;2023-03-07T00:49:25;99708.59;;;4.63;100.00
62708;BME280;48769;51.624;5.886;2023-03-07T00:51:51;99698.25;;;4.60;100.00
62708;BME280;48769;51.624;5.886;2023-03-07T00:54:16;99703.72;;;4.55;100.00
62708;BME280;48769;51.624;5.886;2023-03-07T00:56:42;99709.78;;;4.56;100.00
62708;BME280;48769;51.624;5.886;2023-03-07T00:59:07;99709.09;;;4.52;100.00
62708;BME280;48769;51.624;5.886;2023-03-07T01:01:33;99703.06;;;4.50;100.00
62708;BME280;48769;51.624;5.886;2023-03-07T01:03:59;99705.91;;;4.45;100.00
62708;BME280;48769;51.624;5.886;2023-03-07T01:06:29;99702.50;;;4.43;100.00
62708;BME280;48769;51.624;5.886;2023-03-07T01:09:00;99692.28;;;4.37;100.00
62708;BME280;48769;51.624;5.886;2023-03-07T01:11:28;99693.41;;;4.32;100.00
62708;BME280;48769;51.624;5.886;2023-03-07T01:13:55;99695.41;;;4.27;100.00
62708;BME280;48769;51.624;5.886;2023-03-07T01:16:23;99693.53;;;4.29;100.00
62708;BME280;48769;51.624;5.886;2023-03-07T01:18:52;99693.84;;;4.22;100.00
62708;BME280;48769;51.624;5.886;2023-03-07T01:21:26;99695.06;;;4.14;100.00
62708;BME280;48769;51.624;5.886;2023-03-07T01:23:52;99692.72;;;4.08;100.00
62708;BME280;48769;51.624;5.886;2023-03-07T01:26:21;99685.03;;;4.05;100.00
62708;BME280;48769;51.624;5.886;2023-03-07T01:28:49;99686.00;;;4.02;100.00
62708;BME280;48769;51.624;5.886;2023-03-07T01:31:14;99690.38;;;4.02;100.00
62708;BME280;48769;51.624;5.886;2023-03-07T01:33:40;99679.06;;;4.01;100.00
62708;BME280;48769;51.624;5.886;2023-03-07T01:36:15;99677.25;;;4.03;100.00
62708;BME280;48769;51.624;5.886;2023-03-07T01:38:41;99678.09;;;4.04;100.00
62708;BME280;48769;51.624;5.886;2023-03-07T01:41:06;99676.25;;;4.06;100.00
62708;BME280;48769;51.624;5.886;2023-03-07T01:43:33;99667.53;;;4.07;100.00
62708;BME280;48769;51.624;5.886;2023-03-07T01:48:53;99668.28;;;4.09;100.00
62708;BME280;48769;51.624;5.886;2023-03-07T01:51:19;99669.13;;;4.09;100.00
62708;BME280;48769;51.624;5.886;2023-03-07T01:53:45;99661.94;;;4.14;100.00
62708;BME280;48769;51.624;5.886;2023-03-07T01:56:13;99658.28;;;4.18;100.00
62708;BME280;48769;51.624;5.886;2023-03-07T01:58:38;99658.09;;;4.23;100.00
62708;BME280;48769;51.624;5.886;2023-03-07T02:01:06;99654.47;;;4.26;100.00
62708;BME280;48769;51.624;5.886;2023-03-07T02:03:50;99646.44;;;4.30;100.00
62708;BME280;48769;51.624;5.886;2023-03-07T02:06:16;99642.97;;;4.30;100.00
62708;BME280;48769;51.624;5.886;2023-03-07T02:08:43;99635.84;;;4.33;100.00
62708;BME280;48769;51.624;5.886;2023-03-07T02:11:10;99633.22;;;4.33;100.00
62708;BME280;48769;51.624;5.886;2023-03-07T02:13:35;99632.03;;;4.40;100.00
62708;BME280;48769;51.624;5.886;2023-03-07T02:16:02;99624.97;;;4.42;100.00
62708;BME280;48769;51.624;5.886;2023-03-07T02:18:31;99625.72;;;4.44;100.00
62708;BME280;48769;51.624;5.886;2023-03-07T02:21:09;99624.03;;;4.43;100.00
62708;BME280;48769;51.624;5.886;2023-03-07T02:26:16;99622.97;;;4.48;100.00
62708;BME280;48769;51.624;5.886;2023-03-07T02:28:46;99628.84;;;4.53;100.00
62708;BME280;48769;51.624;5.886;2023-03-07T02:31:12;99620.06;;;4.54;100.00
62708;BME280;48769;51.624;5.886;2023-03-07T02:33:37;99623.75;;;4.50;100.00
62708;BME280;48769;51.624;5.886;2023-03-07T02:36:08;99627.31;;;4.49;100.00
62708;BME280;48769;51.624;5.886;2023-03-07T02:38:37;99627.91;;;4.54;100.00
62708;BME280;48769;51.624;5.886;2023-03-07T02:41:04;99624.47;;;4.53;100.00
62708;BME280;48769;51.624;5.886;2023-03-07T02:43:31;99627.31;;;4.49;100.00
62708;BME280;48769;51.624;5.886;2023-03-07T02:45:56;99616.69;;;4.52;100.00
62708;BME280;48769;51.624;5.886;2023-03-07T02:48:21;99616.09;;;4.45;100.00
62708;BME280;48769;51.624;5.886;2023-03-07T02:50:47;99609.06;;;4.47;100.00
62708;BME280;48769;51.624;5.886;2023-03-07T02:53:13;99612.31;;;4.52;100.00
62708;BME280;48769;51.624;5.886;2023-03-07T02:55:38;99607.84;;;4.54;100.00
62708;BME280;48769;51.624;5.886;2023-03-07T02:58:04;99607.94;;;4.53;100.00
62708;BME280;48769;51.624;5.886;2023-03-07T03:00:29;99606.16;;;4.53;100.00
62708;BME280;48769;51.624;5.886;2023-03-07T03:02:55;99604.19;;;4.58;100.00
62708;BME280;48769;51.624;5.886;2023-03-07T03:05:20;99606.06;;;4.55;100.00
62708;BME280;48769;51.624;5.886;2023-03-07T03:07:46;99605.22;;;4.54;100.00
62708;BME280;48769;51.624;5.886;2023-03-07T03:10:12;99603.81;;;4.47;100.00
62708;BME280;48769;51.624;5.886;2023-03-07T03:12:38;99596.22;;;4.42;100.00
62708;BME280;48769;51.624;5.886;2023-03-07T03:15:04;99609.13;;;4.45;100.00
62708;BME280;48769;51.624;5.886;2023-03-07T03:17:29;99607.56;;;4.41;100.00
62708;BME280;48769;51.624;5.886;2023-03-07T03:19:54;99602.28;;;4.43;100.00
62708;BME280;48769;51.624;5.886;2023-03-07T03:22:20;99611.09;;;4.40;100.00
62708;BME280;48769;51.624;5.886;2023-03-07T03:24:46;99601.34;;;4.44;100.00
62708;BME280;48769;51.624;5.886;2023-03-07T03:27:11;99603.25;;;4.40;100.00
62708;BME280;48769;51.624;5.886;2023-03-07T03:29:36;99605.88;;;4.40;100.00
62708;BME280;48769;51.624;5.886;2023-03-07T03:32:02;99598.72;;;4.44;100.00
62708;BME280;48769;51.624;5.886;2023-03-07T03:34:28;99597.19;;;4.40;100.00
62708;BME280;48769;51.624;5.886;2023-03-07T03:36:53;99602.47;;;4.38;100.00
62708;BME280;48769;51.624;5.886;2023-03-07T03:39:18;99598.31;;;4.34;100.00
62708;BME280;48769;51.624;5.886;2023-03-07T03:41:43;99592.66;;;4.43;100.00
62708;BME280;48769;51.624;5.886;2023-03-07T03:44:09;99589.41;;;4.38;100.00
62708;BME280;48769;51.624;5.886;2023-03-07T03:46:35;99594.75;;;4.35;100.00
62708;BME280;48769;51.624;5.886;2023-03-07T03:49:01;99587.72;;;4.37;100.00
62708;BME280;48769;51.624;5.886;2023-03-07T03:51:26;99586.16;;;4.33;100.00
62708;BME280;48769;51.624;5.886;2023-03-07T03:53:52;99583.59;;;4.32;100.00
62708;BME280;48769;51.624;5.886;2023-03-07T03:56:19;99575.84;;;4.30;100.00
62708;BME280;48769;51.624;5.886;2023-03-07T03:58:47;99575.16;;;4.27;100.00
62708;BME280;48769;51.624;5.886;2023-03-07T04:01:12;99570.75;;;4.27;100.00
62708;BME280;48769;51.624;5.886;2023-03-07T04:03:46;99573.44;;;4.26;100.00
62708;BME280;48769;51.624;5.886;2023-03-07T04:06:14;99560.94;;;4.32;100.00
62708;BME280;48769;51.624;5.886;2023-03-07T04:08:41;99572.16;;;4.34;100.00
62708;BME280;48769;51.624;5.886;2023-03-07T04:11:06;99559.19;;;4.33;100.00
62708;BME280;48769;51.624;5.886;2023-03-07T04:13:33;99559.19;;;4.33;100.00
62708;BME280;48769;51.624;5.886;2023-03-07T04:15:59;99553.25;;;4.29;100.00
62708;BME280;48769;51.624;5.886;2023-03-07T04:18:24;99558.47;;;4.29;100.00
62708;BME280;48769;51.624;5.886;2023-03-07T04:20:50;99540.03;;;4.32;100.00
62708;BME280;48769;51.624;5.886;2023-03-07T04:23:17;99544.47;;;4.30;100.00
62708;BME280;48769;51.624;5.886;2023-03-07T04:25:47;99540.09;;;4.31;100.00
62708;BME280;48769;51.624;5.886;2023-03-07T04:28:12;99541.06;;;4.28;100.00
62708;BME280;48769;51.624;5.886;2023-03-07T04:30:37;99527.25;;;4.26;100.00
62708;BME280;48769;51.624;5.886;2023-03-07T04:33:03;99534.31;;;4.24;100.00
62708;BME280;48769;51.624;5.886;2023-03-07T04:35:28;99529.91;;;4.25;100.00
62708;BME280;48769;51.624;5.886;2023-03-07T04:37:53;99527.38;;;4.23;100.00
62708;BME280;48769;51.624;5.886;2023-03-07T04:40:19;99518.53;;;4.26;100.00
62708;BME280;48769;51.624;5.886;2023-03-07T04:42:44;99522.03;;;4.26;100.00
62708;BME280;48769;51.624;5.886;2023-03-07T04:45:10;99516.22;;;4.19;100.00
62708;BME280;48769;51.624;5.886;2023-03-07T04:47:35;99515.22;;;4.22;100.00
62708;BME280;48769;51.624;5.886;2023-03-07T04:50:00;99519.41;;;4.26;100.00
62708;BME280;48769;51.624;5.886;2023-03-07T04:52:25;99515.03;;;4.27;100.00
62708;BME280;48769;51.624;5.886;2023-03-07T04:54:51;99504.63;;;4.25;100.00
62708;BME280;48769;51.624;5.886;2023-03-07T04:57:16;99500.22;;;4.26;100.00
62708;BME280;48769;51.624;5.886;2023-03-07T04:59:42;99511.69;;;4.23;100.00
62708;BME280;48769;51.624;5.886;2023-03-07T05:02:08;99503.91;;;4.21;100.00
62708;BME280;48769;51.624;5.886;2023-03-07T05:04:35;99502.78;;;4.27;100.00
62708;BME280;48769;51.624;5.886;2023-03-07T05:07:01;99503.78;;;4.25;100.00
62708;BME280;48769;51.624;5.886;2023-03-07T05:09:26;99499.53;;;4.22;100.00
62708;BME280;48769;51.624;5.886;2023-03-07T05:11:51;99510.41;;;4.32;100.00
62708;BME280;48769;51.624;5.886;2023-03-07T05:14:17;99494.16;;;4.25;100.00
62708;BME280;48769;51.624;5.886;2023-03-07T05:16:42;99493.41;;;4.23;100.00
62708;BME280;48769;51.624;5.886;2023-03-07T05:19:07;99491.50;;;4.27;100.00
62708;BME280;48769;51.624;5.886;2023-03-07T05:21:33;99485.56;;;4.23;100.00
62708;BME280;48769;51.624;5.886;2023-03-07T05:23:58;99482.03;;;4.24;100.00
62708;BME280;48769;51.624;5.886;2023-03-07T05:26:24;99482.03;;;4.24;100.00
62708;BME280;48769;51.624;5.886;2023-03-07T05:28:49;99487.25;;;4.24;100.00
62708;BME280;48769;51.624;5.886;2023-03-07T05:31:15;99482.16;;;4.21;100.00
62708;BME280;48769;51.624;5.886;2023-03-07T05:33:40;99476.25;;;4.17;100.00
62708;BME280;48769;51.624;5.886;2023-03-07T05:36:07;99478.63;;;4.22;100.00
62708;BME280;48769;51.624;5.886;2023-03-07T05:38:33;99478.56;;;4.24;100.00
62708;BME280;48769;51.624;5.886;2023-03-07T05:40:58;99486.91;;;4.13;100.00
62708;BME280;48769;51.624;5.886;2023-03-07T05:43:23;99482.53;;;4.13;100.00
62708;BME280;48769;51.624;5.886;2023-03-07T05:45:49;99481.06;;;4.08;100.00
62708;BME280;48769;51.624;5.886;2023-03-07T05:48:14;99481.19;;;4.05;100.00
62708;BME280;48769;51.624;5.886;2023-03-07T05:50:39;99482.59;;;4.12;100.00
62708;BME280;48769;51.624;5.886;2023-03-07T05:53:06;99478.91;;;4.16;100.00
62708;BME280;48769;51.624;5.886;2023-03-07T05:55:31;99486.97;;;4.11;100.00
62708;BME280;48769;51.624;5.886;2023-03-07T05:57:56;99486.13;;;4.11;100.00
62708;BME280;48769;51.624;5.886;2023-03-07T06:00:22;99476.28;;;4.16;100.00
62708;BME280;48769;51.624;5.886;2023-03-07T06:02:47;99478.22;;;4.12;100.00
62708;BME280;48769;51.624;5.886;2023-03-07T06:05:12;99484.38;;;4.11;100.00
62708;BME280;48769;51.624;5.886;2023-03-07T06:07:38;99483.56;;;4.09;100.00
62708;BME280;48769;51.624;5.886;2023-03-07T06:10:04;99478.22;;;4.12;100.00
62708;BME280;48769;51.624;5.886;2023-03-07T06:12:29;99488.53;;;4.15;100.00
62708;BME280;48769;51.624;5.886;2023-03-07T06:14:55;99489.53;;;4.13;100.00
62708;BME280;48769;51.624;5.886;2023-03-07T06:17:20;99484.31;;;4.13;100.00
62708;BME280;48769;51.624;5.886;2023-03-07T06:19:45;99482.31;;;4.18;100.00
62708;BME280;48769;51.624;5.886;2023-03-07T06:22:11;99487.41;;;4.21;100.00
62708;BME280;48769;51.624;5.886;2023-03-07T06:24:36;99473.84;;;4.13;100.00
62708;BME280;48769;51.624;5.886;2023-03-07T06:27:02;99475.59;;;4.12;100.00
62708;BME280;48769;51.624;5.886;2023-03-07T06:29:27;99475.53;;;4.14;100.00
62708;BME280;48769;51.624;5.886;2023-03-07T06:31:53;99468.41;;;4.17;100.00
62708;BME280;48769;51.624;5.886;2023-03-07T06:34:18;99476.94;;;4.21;100.00
62708;BME280;48769;51.624;5.886;2023-03-07T06:36:43;99472.00;;;4.15;100.00
62708;BME280;48769;51.624;5.886;2023-03-07T06:39:09;99468.31;;;4.19;100.00
62708;BME280;48769;51.624;5.886;2023-03-07T06:41:34;99473.34;;;4.24;100.00
62708;BME280;48769;51.624;5.886;2023-03-07T06:43:59;99471.56;;;4.24;100.00
62708;BME280;48769;51.624;5.886;2023-03-07T06:46:25;99474.41;;;4.19;100.00
62708;BME280;48769;51.624;5.886;2023-03-07T06:48:50;99483.09;;;4.20;100.00
62708;BME280;48769;51.624;5.886;2023-03-07T06:51:16;99486.41;;;4.24;100.00
62708;BME280;48769;51.624;5.886;2023-03-07T06:53:42;99483.84;;;4.22;100.00
62708;BME280;48769;51.624;5.886;2023-03-07T06:56:07;99489.22;;;4.19;100.00
62708;BME280;48769;51.624;5.886;2023-03-07T06:58:33;99485.44;;;4.07;100.00
62708;BME280;48769;51.624;5.886;2023-03-07T07:00:58;99490.25;;;3.97;100.00
62708;BME280;48769;51.624;5.886;2023-03-07T07:03:23;99490.38;;;3.94;100.00
62708;BME280;48769;51.624;5.886;2023-03-07T07:05:49;99488.84;;;3.90;100.00
62708;BME280;48769;51.624;5.886;2023-03-07T07:08:14;99495.53;;;3.77;100.00
62708;BME280;48769;51.624;5.886;2023-03-07T07:10:40;99491.19;;;3.76;100.00
62708;BME280;48769;51.624;5.886;2023-03-07T07:13:05;99496.69;;;3.70;100.00
62708;BME280;48769;51.624;5.886;2023-03-07T07:15:31;99493.34;;;3.68;100.00
62708;BME280;48769;51.624;5.886;2023-03-07T07:17:57;99488.50;;;3.59;100.00
62708;BME280;48769;51.624;5.886;2023-03-07T07:20:22;99496.97;;;3.64;100.00
62708;BME280;48769;51.624;5.886;2023-03-07T07:22:48;99504.97;;;3.61;100.00
62708;BME280;48769;51.624;5.886;2023-03-07T07:25:13;99501.56;;;3.59;100.00
62708;BME280;48769;51.624;5.886;2023-03-07T07:27:39;99513.47;;;3.45;100.00
62708;BME280;48769;51.624;5.886;2023-03-07T07:30:05;99508.97;;;3.49;100.00
62708;BME280;48769;51.624;5.886;2023-03-07T07:32:31;99513.53;;;3.44;100.00
62708;BME280;48769;51.624;5.886;2023-03-07T07:34:56;99512.56;;;3.26;100.00
62708;BME280;48769;51.624;5.886;2023-03-07T07:37:22;99506.25;;;3.32;100.00
62708;BME280;48769;51.624;5.886;2023-03-07T07:39:49;99507.22;;;3.29;100.00
62708;BME280;48769;51.624;5.886;2023-03-07T07:42:14;99508.84;;;3.32;100.00
62708;BME280;48769;51.624;5.886;2023-03-07T07:44:39;99514.25;;;3.27;100.00
62708;BME280;48769;51.624;5.886;2023-03-07T07:47:05;99511.78;;;3.24;100.00
62708;BME280;48769;51.624;5.886;2023-03-07T07:49:31;99511.00;;;3.22;100.00
62708;BME280;48769;51.624;5.886;2023-03-07T07:51:56;99519.84;;;3.18;100.00
62708;BME280;48769;51.624;5.886;2023-03-07T07:54:21;99523.25;;;3.20;100.00
62708;BME280;48769;51.624;5.886;2023-03-07T07:56:47;99533.97;;;3.14;100.00
62708;BME280;48769;51.624;5.886;2023-03-07T07:59:12;99533.84;;;3.17;100.00
62708;BME280;48769;51.624;5.886;2023-03-07T08:01:38;99534.41;;;3.23;100.00
62708;BME280;48769;51.624;5.886;2023-03-07T08:04:03;99536.94;;;3.25;100.00
62708;BME280;48769;51.624;5.886;2023-03-07T08:06:29;99558.41;;;3.11;100.00
62708;BME280;48769;51.624;5.886;2023-03-07T08:08:55;99564.81;;;3.04;100.00
62708;BME280;48769;51.624;5.886;2023-03-07T08:11:22;99560.56;;;3.01;100.00
62708;BME280;48769;51.624;5.886;2023-03-07T08:13:47;99560.66;;;2.98;100.00
62708;BME280;48769;51.624;5.886;2023-03-07T08:16:15;99568.69;;;2.94;100.00
62708;BME280;48769;51.624;5.886;2023-03-07T08:18:42;99563.28;;;2.98;100.00
62708;BME280;48769;51.624;5.886;2023-03-07T08:21:08;99561.03;;;3.11;100.00
62708;BME280;48769;51.624;5.886;2023-03-07T08:23:34;99570.75;;;3.08;100.00
62708;BME280;48769;51.624;5.886;2023-03-07T08:26:09;99566.38;;;3.08;100.00
62708;BME280;48769;51.624;5.886;2023-03-07T08:28:36;99572.75;;;3.01;100.00
62708;BME280;48769;51.624;5.886;2023-03-07T08:31:09;99567.38;;;3.06;100.00
62708;BME280;48769;51.624;5.886;2023-03-07T08:33:35;99578.31;;;3.14;100.00
62708;BME280;48769;51.624;5.886;2023-03-07T08:36:01;99574.75;;;3.16;100.00
62708;BME280;48769;51.624;5.886;2023-03-07T08:38:27;99576.16;;;3.23;100.00
62708;BME280;48769;51.624;5.886;2023-03-07T08:40:52;99569.97;;;3.26;100.00
62708;BME280;48769;51.624;5.886;2023-03-07T08:43:18;99580.56;;;3.23;100.00
62708;BME280;48769;51.624;5.886;2023-03-07T08:45:44;99574.41;;;3.24;100.00
62708;BME280;48769;51.624;5.886;2023-03-07T08:48:09;99575.72;;;3.14;100.00
62708;BME280;48769;51.624;5.886;2023-03-07T08:50:35;99571.94;;;3.21;100.00
62708;BME280;48769;51.624;5.886;2023-03-07T08:53:00;99578.56;;;3.28;100.00
62708;BME280;48769;51.624;5.886;2023-03-07T08:55:26;99584.94;;;3.22;100.00
62708;BME280;48769;51.624;5.886;2023-03-07T08:57:51;99581.41;;;3.23;100.00
62708;BME280;48769;51.624;5.886;2023-03-07T09:00:17;99574.28;;;3.27;100.00
62708;BME280;48769;51.624;5.886;2023-03-07T09:02:42;99580.28;;;3.29;100.00
62708;BME280;48769;51.624;5.886;2023-03-07T09:05:08;99571.16;;;3.39;100.00
62708;BME280;48769;51.624;5.886;2023-03-07T09:07:33;99564.63;;;3.49;100.00
62708;BME280;48769;51.624;5.886;2023-03-07T09:09:59;99570.78;;;3.48;100.00
62708;BME280;48769;51.624;5.886;2023-03-07T09:12:24;99580.84;;;3.58;100.00
62708;BME280;48769;51.624;5.886;2023-03-07T09:14:52;99575.75;;;3.55;100.00
62708;BME280;48769;51.624;5.886;2023-03-07T09:17:18;99581.97;;;3.50;100.00
62708;BME280;48769;51.624;5.886;2023-03-07T09:19:43;99581.66;;;3.58;100.00
62708;BME280;48769;51.624;5.886;2023-03-07T09:22:08;99589.44;;;3.60;100.00
62708;BME280;48769;51.624;5.886;2023-03-07T09:24:34;99585.38;;;3.73;100.00
62708;BME280;48769;51.624;5.886;2023-03-07T09:26:59;99581.44;;;3.83;100.00
62708;BME280;48769;51.624;5.886;2023-03-07T09:29:24;99584.84;;;3.85;100.00
62708;BME280;48769;51.624;5.886;2023-03-07T09:31:50;99582.16;;;3.87;100.00
62708;BME280;48769;51.624;5.886;2023-03-07T09:34:15;99585.22;;;3.76;100.00
62708;BME280;48769;51.624;5.886;2023-03-07T09:36:40;99573.88;;;3.57;100.00
62708;BME280;48769;51.624;5.886;2023-03-07T09:39:06;99579.38;;;3.50;100.00
62708;BME280;48769;51.624;5.886;2023-03-07T09:47:29;99592.97;;;3.38;100.00
62708;BME280;48769;51.624;5.886;2023-03-07T09:49:59;99587.41;;;3.46;100.00
62708;BME280;48769;51.624;5.886;2023-03-07T09:52:30;99600.25;;;3.50;100.00
62708;BME280;48769;51.624;5.886;2023-03-07T09:55:03;99597.00;;;3.45;100.00
62708;BME280;48769;51.624;5.886;2023-03-07T09:57:32;99601.78;;;3.36;100.00
62708;BME280;48769;51.624;5.886;2023-03-07T10:00:21;99602.63;;;3.36;100.00
62708;BME280;48769;51.624;5.886;2023-03-07T10:05:38;99595.56;;;3.38;100.00
62708;BME280;48769;51.624;5.886;2023-03-07T10:08:10;99585.13;;;3.38;100.00
62708;BME280;48769;51.624;5.886;2023-03-07T10:10:40;99590.88;;;3.46;100.00
62708;BME280;48769;51.624;5.886;2023-03-07T10:16:18;99596.22;;;3.64;100.00
62708;BME280;48769;51.624;5.886;2023-03-07T10:19:02;99590.22;;;3.62;100.00
62708;BME280;48769;51.624;5.886;2023-03-07T10:22:02;99591.72;;;3.67;100.00
62708;BME280;48769;51.624;5.886;2023-03-07T10:24:37;99599.13;;;3.77;100.00
62708;BME280;48769;51.624;5.886;2023-03-07T10:27:08;99601.03;;;3.73;100.00
62708;BME280;48769;51.624;5.886;2023-03-07T10:29:55;99597.94;;;3.65;100.00
62708;BME280;48769;51.624;5.886;2023-03-07T10:32:25;99603.66;;;3.73;100.00
62708;BME280;48769;51.624;5.886;2023-03-07T10:34:57;99601.03;;;3.73;100.00
62708;BME280;48769;51.624;5.886;2023-03-07T10:40:17;99604.50;;;3.73;100.00
62708;BME280;48769;51.624;5.886;2023-03-07T10:42:43;99605.47;;;3.91;100.00
62708;BME280;48769;51.624;5.886;2023-03-07T10:45:12;99601.97;;;4.11;100.00
62708;BME280;48769;51.624;5.886;2023-03-07T10:47:39;99601.34;;;4.25;100.00
62708;BME280;48769;51.624;5.886;2023-03-07T10:50:35;99599.56;;;4.07;100.00
62708;BME280;48769;51.624;5.886;2023-03-07T10:53:08;99603.22;;;4.03;100.00
62708;BME280;48769;51.624;5.886;2023-03-07T10:55:42;99601.53;;;4.02;100.00
62708;BME280;48769;51.624;5.886;2023-03-07T10:58:13;99599.31;;;4.13;100.00
62708;BME280;48769;51.624;5.886;2023-03-07T11:00:39;99607.53;;;4.04;100.00
62708;BME280;48769;51.624;5.886;2023-03-07T11:03:20;99600.28;;;4.10;100.00
62708;BME280;48769;51.624;5.886;2023-03-07T11:05:47;99594.06;;;4.13;100.00
62708;BME280;48769;51.624;5.886;2023-03-07T11:08:30;99596.47;;;4.17;100.00
62708;BME280;48769;51.624;5.886;2023-03-07T11:10:58;99601.44;;;4.42;100.00
62708;BME280;48769;51.624;5.886;2023-03-07T11:13:24;99603.34;;;4.39;100.00
62708;BME280;48769;51.624;5.886;2023-03-07T11:15:50;99598.81;;;4.42;100.00
62708;BME280;48769;51.624;5.886;2023-03-07T11:18:39;99597.75;;;4.47;100.00
62708;BME280;48769;51.624;5.886;2023-03-07T11:21:05;99595.94;;;4.49;100.00
62708;BME280;48769;51.624;5.886;2023-03-07T11:23:31;99600.00;;;4.54;100.00
62708;BME280;48769;51.624;5.886;2023-03-07T11:26:20;99597.59;;;4.50;100.00
62708;BME280;48769;51.624;5.886;2023-03-07T11:28:46;99592.66;;;4.43;100.00
62708;BME280;48769;51.624;5.886;2023-03-07T11:31:28;99598.03;;;4.40;100.00
62708;BME280;48769;51.624;5.886;2023-03-07T11:36:42;99596.34;;;4.39;100.00
62708;BME280;48769;51.624;5.886;2023-03-07T11:39:20;99598.44;;;4.31;100.00
62708;BME280;48769;51.624;5.886;2023-03-07T11:41:55;99591.53;;;4.30;100.00
62708;BME280;48769;51.624;5.886;2023-03-07T11:47:15;99590.13;;;4.23;100.00
62708;BME280;48769;51.624;5.886;2023-03-07T12:01:12;99589.19;;;4.43;100.00
62708;BME280;48769;51.624;5.886;2023-03-07T12:06:32;99585.94;;;4.38;100.00
62708;BME280;48769;51.624;5.886;2023-03-07T12:20:19;99580.47;;;4.61;100.00
62708;BME280;48769;51.624;5.886;2023-03-07T12:23:10;99586.63;;;4.60;100.00
62708;BME280;48769;51.624;5.886;2023-03-07T12:25:46;99588.28;;;4.63;100.00
62708;BME280;48769;51.624;5.886;2023-03-07T12:28:22;99586.34;;;4.66;100.00
62708;BME280;48769;51.624;5.886;2023-03-07T12:30:53;99576.94;;;4.81;100.00
62708;BME280;48769;51.624;5.886;2023-03-07T12:36:16;99586.75;;;4.76;100.00
62708;BME280;48769;51.624;5.886;2023-03-07T12:41:38;99582.47;;;4.75;100.00
62708;BME280;48769;51.624;5.886;2023-03-07T12:44:12;99581.28;;;4.81;100.00
62708;BME280;48769;51.624;5.886;2023-03-07T12:46:46;99590.19;;;4.96;100.00
62708;BME280;48769;51.624;5.886;2023-03-07T12:49:23;99596.50;;;4.91;100.00
62708;BME280;48769;51.624;5.886;2023-03-07T12:51:58;99594.94;;;4.87;100.00
62708;BME280;48769;51.624;5.886;2023-03-07T12:54:41;99591.94;;;4.78;100.00
62708;BME280;48769;51.624;5.886;2023-03-07T12:57:29;99579.47;;;4.83;100.00
62708;BME280;48769;51.624;5.886;2023-03-07T12:59:57;99578.78;;;4.79;100.00
62708;BME280;48769;51.624;5.886;2023-03-07T13:02:29;99583.56;;;4.88;100.00
62708;BME280;48769;51.624;5.886;2023-03-07T13:04:56;99578.34;;;4.88;100.00
62708;BME280;48769;51.624;5.886;2023-03-07T13:07:26;99576.94;;;4.81;100.00
62708;BME280;48769;51.624;5.886;2023-03-07T13:09:54;99575.56;;;4.91;100.00
62708;BME280;48769;51.624;5.886;2023-03-07T13:12:35;99581.56;;;4.93;100.00
62708;BME280;48769;51.624;5.886;2023-03-07T13:28:40;99583.97;;;4.62;100.00
62708;BME280;48769;51.624;5.886;2023-03-07T13:33:35;99581.50;;;4.59;100.00
62708;BME280;48769;51.624;5.886;2023-03-07T13:36:01;99584.88;;;4.61;100.00
62708;BME280;48769;51.624;5.886;2023-03-07T13:38:31;99580.22;;;4.49;100.00
62708;BME280;48769;51.624;5.886;2023-03-07T13:40:59;99581.97;;;4.48;100.00
62708;BME280;48769;51.624;5.886;2023-03-07T13:45:59;99583.31;;;4.57;100.00
62708;BME280;48769;51.624;5.886;2023-03-07T13:55:49;99590.66;;;4.67;100.00
62708;BME280;48769;51.624;5.886;2023-03-07T13:58:33;99588.00;;;4.86;100.00
62708;BME280;48769;51.624;5.886;2023-03-07T14:01:03;99584.44;;;4.70;100.00
62708;BME280;48769;51.624;5.886;2023-03-07T14:03:36;99584.16;;;4.76;100.00
62708;BME280;48769;51.624;5.886;2023-03-07T14:06:12;99590.56;;;4.88;100.00
62708;BME280;48769;51.624;5.886;2023-03-07T14:08:39;99591.72;;;5.00;100.00
62708;BME280;48769;51.624;5.886;2023-03-07T14:11:25;99594.13;;;5.04;100.00
62708;BME280;48769;51.624;5.886;2023-03-07T14:25:13;99611.84;;;4.80;100.00
62708;BME280;48769;51.624;5.886;2023-03-07T14:27:49;99614.59;;;4.77;100.00
62708;BME280;48769;51.624;5.886;2023-03-07T14:30:16;99622.31;;;4.61;100.00
62708;BME280;48769;51.624;5.886;2023-03-07T14:32:42;99619.50;;;4.47;100.00
62708;BME280;48769;51.624;5.886;2023-03-07T14:35:08;99617.25;;;4.39;100.00
62708;BME280;48769;51.624;5.886;2023-03-07T14:37:40;99628.00;;;4.33;100.00